createdAt,value
2022-08-19T00:00:48.935Z,22.43
2022-08-19T00:03:19.128Z,22.30
2022-08-19T00:05:47.750Z,22.36
2022-08-19T00:08:16.335Z,22.47
2022-08-19T00:10:47.010Z,22.41
2022-08-19T00:13:16.799Z,22.33
2022-08-19T00:15:45.831Z,22.32
2022-08-19T00:18:14.471Z,22.22
2022-08-19T00:20:43.128Z,22.19
2022-08-19T00:23:11.748Z,22.03
2022-08-19T00:25:40.543Z,21.88
2022-08-19T00:28:09.745Z,21.88
2022-08-19T00:30:38.862Z,22.02
2022-08-19T00:33:08.618Z,22.04
2022-08-19T00:35:39.631Z,22.14
2022-08-19T00:38:08.413Z,22.12
2022-08-19T00:40:37.146Z,22.03
2022-08-19T00:43:14.176Z,22.03
2022-08-19T00:45:44.679Z,22.30
2022-08-19T00:48:15.162Z,22.68
2022-08-19T00:50:51.652Z,22.22
2022-08-19T00:53:28.847Z,22.44
2022-08-19T00:56:03.247Z,22.28
2022-08-19T00:58:35.816Z,21.84
2022-08-19T01:01:06.286Z,21.82
2022-08-19T01:03:57.170Z,22.25
2022-08-19T01:06:23.891Z,22.12
2022-08-19T01:08:52.856Z,22.02
2022-08-19T01:11:21.741Z,21.67
2022-08-19T01:13:52.798Z,21.79
2022-08-19T01:16:26.696Z,22.28
2022-08-19T01:18:57.533Z,21.86
2022-08-19T01:21:39.216Z,21.86
2022-08-19T01:24:08.081Z,21.46
2022-08-19T01:26:44.930Z,21.29
2022-08-19T01:29:16.731Z,21.25
2022-08-19T01:31:45.557Z,21.18
2022-08-19T01:34:14.207Z,21.35
2022-08-19T01:36:50.213Z,21.81
2022-08-19T01:39:25.143Z,22.09
2022-08-19T01:41:55.462Z,21.62
2022-08-19T01:44:25.306Z,21.90
2022-08-19T01:46:54.439Z,21.68
2022-08-19T01:49:27.716Z,21.32
2022-08-19T01:51:56.640Z,21.49
2022-08-19T01:54:27.455Z,21.21
2022-08-19T01:57:12.745Z,21.14
2022-08-19T01:59:43.192Z,20.95
2022-08-19T02:02:11.860Z,21.08
2022-08-19T02:04:40.977Z,21.02
2022-08-19T02:07:10.088Z,21.09
2022-08-19T02:09:39.295Z,21.05
2022-08-19T02:12:10.016Z,20.95
2022-08-19T02:14:39.076Z,20.85
2022-08-19T02:17:08.021Z,20.91
2022-08-19T02:19:36.759Z,21.14
2022-08-19T02:22:09.780Z,21.24
2022-08-19T02:24:38.456Z,21.23
2022-08-19T02:27:07.463Z,21.39
2022-08-19T02:29:36.250Z,21.42
2022-08-19T02:32:05.529Z,20.78
2022-08-19T02:34:34.732Z,20.60
2022-08-19T02:37:03.963Z,20.59
2022-08-19T02:39:32.845Z,20.53
2022-08-19T02:42:02.992Z,20.31
2022-08-19T02:44:32.089Z,20.00
2022-08-19T02:47:00.888Z,20.17
2022-08-19T02:49:29.539Z,20.26
2022-08-19T02:52:04.195Z,20.23
2022-08-19T02:54:32.962Z,20.18
2022-08-19T02:57:01.634Z,20.26
2022-08-19T02:59:32.801Z,20.58
2022-08-19T03:02:01.838Z,20.82
2022-08-19T03:04:30.825Z,20.94
2022-08-19T03:07:07.216Z,21.21
2022-08-19T03:09:41.152Z,21.24
2022-08-19T03:12:10.017Z,21.40
2022-08-19T03:14:39.317Z,21.38
2022-08-19T03:17:09.076Z,21.31
2022-08-19T03:19:37.767Z,21.13
2022-08-19T03:22:06.490Z,21.01
2022-08-19T03:24:35.458Z,21.01
2022-08-19T03:27:06.040Z,20.57
2022-08-19T03:29:34.847Z,20.45
2022-08-19T03:32:31.724Z,20.47
2022-08-19T03:35:01.765Z,20.56
2022-08-19T03:37:30.377Z,20.91
2022-08-19T03:39:59.063Z,21.20
2022-08-19T03:42:32.018Z,21.36
2022-08-19T03:45:08.581Z,21.01
2022-08-19T03:47:38.217Z,20.79
2022-08-19T03:50:07.459Z,21.05
2022-08-19T03:52:37.054Z,21.13
2022-08-19T03:55:06.714Z,20.99
2022-08-19T03:57:35.928Z,20.82
2022-08-19T04:00:13.523Z,20.59
2022-08-19T04:02:58.350Z,21.32
2022-08-19T04:05:30.777Z,21.19
2022-08-19T04:08:00.614Z,21.38
2022-08-19T04:10:30.468Z,20.86
2022-08-19T04:12:59.131Z,20.98
2022-08-19T04:15:29.999Z,20.59
2022-08-19T04:17:58.740Z,21.20
2022-08-19T04:20:27.411Z,21.48
2022-08-19T04:22:56.023Z,21.57
2022-08-19T04:25:25.440Z,21.44
2022-08-19T04:27:54.045Z,21.67
2022-08-19T04:30:23.675Z,21.37
2022-08-19T04:32:52.503Z,21.43
2022-08-19T04:35:24.819Z,21.26
2022-08-19T04:37:53.684Z,21.23
2022-08-19T04:40:40.833Z,21.39
2022-08-19T04:43:16.657Z,21.41
2022-08-19T04:45:48.203Z,21.95
2022-08-19T04:48:26.268Z,21.85
2022-08-19T04:50:59.479Z,22.20
2022-08-19T04:53:37.705Z,22.02
2022-08-19T04:56:18.348Z,22.47
2022-08-19T04:58:50.823Z,22.36
2022-08-19T05:01:30.822Z,22.63
2022-08-19T05:04:02.381Z,22.31
2022-08-19T05:06:34.516Z,22.29
2022-08-19T05:09:06.021Z,22.33
2022-08-19T05:11:40.204Z,22.67
2022-08-19T05:14:13.569Z,22.95
2022-08-19T05:16:43.183Z,23.21
2022-08-19T05:19:30.380Z,23.81
2022-08-19T05:22:21.416Z,24.01
2022-08-19T05:25:11.117Z,24.38
2022-08-19T05:27:39.202Z,24.80
2022-08-19T05:30:09.527Z,24.03
2022-08-19T05:32:39.785Z,24.01
2022-08-19T05:35:09.578Z,24.26
2022-08-19T05:37:38.207Z,24.45
2022-08-19T05:40:07.687Z,24.58
2022-08-19T05:42:36.359Z,24.64
2022-08-19T05:45:07.654Z,24.81
2022-08-19T05:47:42.042Z,24.71
2022-08-19T05:50:10.838Z,24.75
2022-08-19T05:52:43.647Z,24.48
2022-08-19T05:55:14.790Z,24.80
2022-08-19T05:57:44.233Z,24.84
2022-08-19T06:00:14.538Z,25.02
2022-08-19T06:02:43.377Z,25.11
2022-08-19T06:05:12.508Z,25.45
2022-08-19T06:07:41.921Z,25.83
2022-08-19T06:10:13.419Z,26.69
2022-08-19T06:12:42.023Z,26.53
2022-08-19T06:15:15.095Z,26.20
2022-08-19T06:17:48.061Z,26.13
2022-08-19T06:20:34.423Z,26.20
2022-08-19T06:23:07.889Z,26.41
2022-08-19T06:25:37.035Z,26.19
2022-08-19T06:28:14.988Z,26.70
2022-08-19T06:30:44.080Z,26.85
2022-08-19T06:33:12.745Z,26.87
2022-08-19T06:35:42.831Z,27.57
2022-08-19T06:38:11.955Z,28.07
2022-08-19T06:40:40.584Z,27.96
2022-08-19T06:43:09.420Z,29.38
2022-08-19T06:45:39.931Z,31.01
2022-08-19T06:48:08.755Z,31.02
2022-08-19T06:50:39.447Z,31.81
2022-08-19T06:53:08.381Z,33.10
2022-08-19T06:55:36.839Z,33.88
2022-08-19T06:58:06.808Z,32.91
2022-08-19T07:00:35.843Z,31.36
2022-08-19T07:03:08.822Z,32.93
2022-08-19T07:05:45.631Z,32.74
2022-08-19T07:08:15.629Z,33.78
2022-08-19T07:10:47.050Z,31.76
2022-08-19T07:13:16.003Z,32.46
2022-08-19T07:15:44.562Z,33.78
2022-08-19T07:18:13.134Z,33.07
2022-08-19T07:20:44.124Z,33.10
2022-08-19T07:23:16.212Z,29.97
2022-08-19T07:25:53.211Z,29.78
2022-08-19T07:28:24.209Z,30.93
2022-08-19T07:30:54.410Z,34.98
2022-08-19T07:33:23.978Z,34.78
2022-08-19T07:35:56.532Z,34.13
2022-08-19T07:38:25.496Z,30.90
2022-08-19T07:40:55.019Z,30.01
2022-08-19T07:43:31.447Z,30.35
2022-08-19T07:46:04.095Z,31.10
2022-08-19T07:48:33.661Z,30.78
2022-08-19T07:51:09.210Z,31.19
2022-08-19T07:53:40.109Z,30.70
2022-08-19T07:56:08.822Z,30.68
2022-08-19T07:58:43.795Z,30.92
2022-08-19T08:01:19.269Z,31.82
2022-08-19T08:04:09.419Z,31.55
2022-08-19T08:06:57.060Z,32.12
2022-08-19T08:09:36.126Z,31.70
2022-08-19T08:12:33.709Z,32.46
2022-08-19T08:15:12.957Z,31.82
2022-08-19T08:17:49.477Z,32.13
2022-08-19T08:20:21.165Z,32.07
2022-08-19T08:23:09.100Z,32.23
2022-08-19T08:25:39.107Z,32.33
2022-08-19T08:28:11.435Z,32.60
2022-08-19T08:30:49.153Z,32.78
2022-08-19T08:33:28.614Z,32.39
2022-08-19T08:36:06.871Z,32.67
2022-08-19T08:38:39.788Z,32.67
2022-08-19T08:41:54.820Z,32.81
2022-08-19T08:47:24.845Z,33.48
2022-08-19T08:50:44.631Z,33.20
2022-08-19T08:53:29.659Z,33.48
2022-08-19T08:56:06.776Z,33.11
2022-08-19T08:59:04.925Z,33.72
2022-08-19T09:01:33.543Z,33.74
2022-08-19T09:04:06.486Z,33.78
2022-08-19T09:06:56.458Z,34.08
2022-08-19T09:09:40.975Z,33.36
2022-08-19T09:12:49.190Z,34.60
2022-08-19T09:15:33.493Z,34.24
2022-08-19T09:18:07.544Z,33.63
2022-08-19T09:20:36.149Z,34.42
2022-08-19T09:23:11.899Z,34.61
2022-08-19T09:25:41.309Z,34.54
2022-08-19T09:28:15.521Z,34.45
2022-08-19T09:30:53.373Z,34.61
2022-08-19T09:33:21.879Z,34.14
2022-08-19T09:35:53.508Z,34.64
2022-08-19T09:38:23.496Z,33.91
2022-08-19T09:40:52.236Z,34.39
2022-08-19T09:43:33.143Z,34.13
2022-08-19T09:46:10.390Z,34.70
2022-08-19T09:48:41.117Z,35.42
2022-08-19T09:51:24.086Z,34.88
2022-08-19T09:53:58.535Z,35.10
2022-08-19T09:56:26.988Z,35.07
2022-08-19T09:58:55.461Z,35.13
2022-08-19T10:01:28.879Z,35.14
2022-08-19T10:04:00.985Z,35.40
2022-08-19T10:06:46.540Z,36.00
2022-08-19T10:09:26.155Z,35.71
2022-08-19T10:12:06.165Z,36.08
2022-08-19T10:14:35.708Z,35.71
2022-08-19T10:17:20.025Z,35.72
2022-08-19T10:19:55.208Z,35.67
2022-08-19T10:22:25.642Z,35.53
2022-08-19T10:24:55.194Z,35.82
2022-08-19T10:27:24.243Z,35.42
2022-08-19T10:29:55.246Z,35.59
2022-08-19T10:32:32.033Z,36.09
2022-08-19T10:35:09.157Z,36.06
2022-08-19T10:37:42.297Z,35.44
2022-08-19T10:40:26.940Z,35.67
2022-08-19T10:42:57.221Z,35.72
2022-08-19T10:45:28.328Z,35.52
2022-08-19T10:47:57.404Z,36.16
2022-08-19T10:50:45.729Z,36.12
2022-08-19T10:53:14.800Z,35.93
2022-08-19T10:56:04.177Z,36.11
2022-08-19T10:58:32.703Z,36.18
2022-08-19T11:01:01.208Z,36.09
2022-08-19T11:03:30.990Z,36.14
2022-08-19T11:06:07.204Z,36.47
2022-08-19T11:08:44.816Z,36.46
2022-08-19T11:11:14.423Z,36.36
2022-08-19T11:13:44.483Z,36.44
2022-08-19T11:16:19.382Z,36.68
2022-08-19T11:18:53.688Z,36.26
2022-08-19T11:21:35.038Z,36.42
2022-08-19T11:24:10.516Z,36.34
2022-08-19T11:26:41.193Z,37.14
2022-08-19T11:29:14.267Z,37.17
2022-08-19T11:31:49.085Z,37.29
2022-08-19T11:34:23.385Z,37.02
2022-08-19T11:36:53.170Z,37.00
2022-08-19T11:39:23.623Z,36.94
2022-08-19T11:41:52.430Z,36.99
2022-08-19T11:44:21.243Z,36.60
2022-08-19T11:46:49.751Z,37.51
2022-08-19T11:49:21.067Z,37.27
2022-08-19T11:51:51.790Z,36.91
2022-08-19T11:54:22.575Z,36.76
2022-08-19T11:56:51.165Z,37.31
2022-08-19T11:59:19.788Z,38.08
2022-08-19T12:01:48.278Z,38.02
2022-08-19T12:04:16.924Z,37.51
2022-08-19T12:06:47.059Z,37.36
2022-08-19T12:09:16.629Z,37.47
2022-08-19T12:11:45.774Z,37.12
2022-08-19T12:14:16.869Z,38.12
2022-08-19T12:16:51.375Z,37.39
2022-08-19T12:19:22.317Z,37.84
2022-08-19T12:21:54.139Z,37.91
2022-08-19T12:24:24.510Z,37.93
2022-08-19T12:26:54.532Z,37.83
2022-08-19T12:29:25.208Z,37.08
2022-08-19T12:31:53.743Z,37.49
2022-08-19T12:34:22.340Z,38.18
2022-08-19T12:36:50.814Z,37.50
2022-08-19T12:39:19.699Z,37.74
2022-08-19T12:41:51.530Z,37.72
2022-08-19T12:44:29.251Z,37.68
2022-08-19T12:47:01.300Z,37.78
2022-08-19T12:49:52.514Z,37.99
2022-08-19T12:52:26.917Z,37.73
2022-08-19T12:54:58.340Z,37.34
2022-08-19T12:57:32.692Z,37.37
2022-08-19T13:00:17.154Z,37.80
2022-08-19T13:02:51.367Z,37.67
2022-08-19T13:05:26.570Z,37.38
2022-08-19T13:07:58.398Z,37.47
2022-08-19T13:10:35.905Z,37.61
2022-08-19T13:13:10.861Z,37.39
2022-08-19T13:15:44.009Z,37.26
2022-08-19T13:18:14.057Z,37.44
2022-08-19T13:20:42.680Z,37.26
2022-08-19T13:23:21.230Z,37.50
2022-08-19T13:26:03.672Z,37.12
2022-08-19T13:28:52.602Z,37.72
2022-08-19T13:31:43.593Z,37.59
2022-08-19T13:34:13.221Z,37.42
2022-08-19T13:36:42.442Z,37.82
2022-08-19T13:39:12.210Z,37.80
2022-08-19T13:41:50.939Z,37.30
2022-08-19T13:44:20.840Z,37.94
2022-08-19T13:46:53.979Z,37.90
2022-08-19T13:49:24.254Z,37.91
2022-08-19T13:51:52.719Z,37.52
2022-08-19T13:54:21.223Z,37.46
2022-08-19T13:56:49.786Z,38.06
2022-08-19T13:59:18.799Z,37.97
2022-08-19T14:01:47.384Z,37.97
2022-08-19T14:04:15.880Z,37.86
2022-08-19T14:06:44.449Z,36.77
2022-08-19T14:09:12.896Z,37.32
2022-08-19T14:11:41.434Z,37.12
2022-08-19T14:14:12.262Z,37.29
2022-08-19T14:16:44.368Z,37.18
2022-08-19T14:19:12.941Z,37.08
2022-08-19T14:21:42.226Z,37.15
2022-08-19T14:24:11.123Z,37.08
2022-08-19T14:26:40.040Z,37.30
2022-08-19T14:29:08.661Z,37.73
2022-08-19T14:31:37.135Z,37.52
2022-08-19T14:34:06.918Z,37.53
2022-08-19T14:36:39.161Z,37.45
2022-08-19T14:39:07.928Z,37.39
2022-08-19T14:41:36.995Z,37.03
2022-08-19T14:44:05.361Z,37.42
2022-08-19T14:46:34.030Z,37.31
2022-08-19T14:49:02.627Z,37.18
2022-08-19T14:51:38.389Z,37.02
2022-08-19T14:54:06.901Z,36.92
2022-08-19T14:56:36.070Z,37.30
2022-08-19T14:59:04.697Z,36.98
2022-08-19T15:01:33.330Z,37.15
2022-08-19T15:04:01.976Z,36.99
2022-08-19T15:06:30.549Z,37.02
2022-08-19T15:09:04.220Z,36.15
2022-08-19T15:11:33.888Z,36.47
2022-08-19T15:14:02.744Z,36.18
2022-08-19T15:16:31.283Z,35.88
2022-08-19T15:19:01.183Z,35.73
2022-08-19T15:21:31.357Z,35.57
2022-08-19T15:24:02.123Z,35.57
2022-08-19T15:26:33.415Z,35.82
2022-08-19T15:29:04.176Z,35.90
2022-08-19T15:31:38.130Z,34.85
2022-08-19T15:34:08.315Z,34.18
2022-08-19T15:36:37.739Z,33.79
2022-08-19T15:39:07.628Z,33.59
2022-08-19T15:41:37.116Z,33.17
2022-08-19T15:44:15.838Z,32.87
2022-08-19T15:46:47.324Z,32.82
2022-08-19T15:49:19.548Z,32.11
2022-08-19T15:51:53.107Z,32.16
2022-08-19T15:54:22.747Z,32.08
2022-08-19T15:57:10.835Z,31.97
2022-08-19T16:00:00.122Z,31.78
2022-08-19T16:02:53.514Z,31.73
2022-08-19T16:05:46.462Z,31.63
2022-08-19T16:08:15.677Z,31.53
2022-08-19T16:10:44.286Z,31.41
2022-08-19T16:13:12.726Z,31.41
2022-08-19T16:15:43.241Z,31.31
2022-08-19T16:18:11.809Z,31.20
2022-08-19T16:20:40.298Z,31.31
2022-08-19T16:23:08.833Z,31.25
2022-08-19T16:25:37.246Z,31.15
2022-08-19T16:28:07.258Z,31.16
2022-08-19T16:30:40.700Z,31.15
2022-08-19T16:33:10.528Z,31.07
2022-08-19T16:35:39.697Z,31.03
2022-08-19T16:38:08.126Z,30.97
2022-08-19T16:40:36.990Z,31.03
2022-08-19T16:43:07.044Z,30.73
2022-08-19T16:45:35.736Z,30.84
2022-08-19T16:48:04.907Z,30.83
2022-08-19T16:50:48.746Z,30.63
2022-08-19T16:53:22.514Z,30.70
2022-08-19T16:55:53.381Z,30.67
2022-08-19T16:58:34.140Z,30.52
2022-08-19T17:01:08.913Z,30.53
2022-08-19T17:03:40.088Z,30.36
2022-08-19T17:06:20.743Z,30.45
2022-08-19T17:08:56.645Z,30.04
2022-08-19T17:11:29.337Z,30.36
2022-08-19T17:13:59.143Z,30.30
2022-08-19T17:16:33.053Z,30.30
2022-08-19T17:19:08.383Z,30.15
2022-08-19T17:21:40.637Z,30.18
2022-08-19T17:24:09.758Z,30.02
2022-08-19T17:26:41.771Z,30.12
2022-08-19T17:29:10.476Z,29.93
2022-08-19T17:31:38.934Z,30.09
2022-08-19T17:34:07.444Z,30.06
2022-08-19T17:36:38.368Z,30.02
2022-08-19T17:39:07.096Z,29.93
2022-08-19T17:41:35.785Z,29.74
2022-08-19T17:44:05.236Z,29.85
2022-08-19T17:46:34.080Z,29.80
2022-08-19T17:49:03.157Z,29.65
2022-08-19T17:51:35.179Z,29.69
2022-08-19T17:54:05.548Z,29.31
2022-08-19T17:56:35.202Z,29.46
2022-08-19T17:59:05.270Z,29.46
2022-08-19T18:01:52.029Z,29.19
2022-08-19T18:04:26.066Z,29.16
2022-08-19T18:06:56.039Z,29.36
2022-08-19T18:09:41.582Z,29.25
2022-08-19T18:12:16.514Z,28.95
2022-08-19T18:14:45.206Z,29.09
2022-08-19T18:17:19.296Z,29.04
2022-08-19T18:19:49.064Z,28.96
2022-08-19T18:22:36.641Z,28.78
2022-08-19T18:25:26.424Z,28.88
2022-08-19T18:27:59.314Z,28.94
2022-08-19T18:30:34.509Z,28.94
2022-08-19T18:33:15.309Z,29.01
2022-08-19T18:35:49.286Z,29.05
2022-08-19T18:38:39.878Z,29.21
2022-08-19T18:41:28.313Z,29.28
2022-08-19T18:44:15.071Z,29.24
2022-08-19T18:47:02.282Z,29.09
2022-08-19T18:49:33.834Z,28.88
2022-08-19T18:52:04.774Z,29.07
2022-08-19T18:54:33.429Z,28.92
2022-08-19T18:57:03.327Z,28.79
2022-08-19T18:59:32.863Z,28.74
2022-08-19T19:02:02.419Z,28.53
2022-08-19T19:04:37.498Z,28.28
2022-08-19T19:07:07.699Z,28.14
2022-08-19T19:09:38.950Z,28.10
2022-08-19T19:12:12.263Z,27.79
2022-08-19T19:14:50.547Z,27.89
2022-08-19T19:17:26.014Z,27.84
2022-08-19T19:19:54.790Z,27.91
2022-08-19T19:22:25.127Z,27.88
2022-08-19T19:24:54.706Z,27.94
2022-08-19T19:27:23.991Z,27.91
2022-08-19T19:29:53.289Z,27.92
2022-08-19T19:32:29.544Z,27.84
2022-08-19T19:34:59.687Z,28.09
2022-08-19T19:37:28.215Z,28.11
2022-08-19T19:39:56.695Z,28.06
2022-08-19T19:42:25.268Z,27.73
2022-08-19T19:44:56.080Z,27.83
2022-08-19T19:47:25.775Z,27.86
2022-08-19T19:52:46.846Z,27.48
2022-08-19T19:55:20.204Z,27.44
2022-08-19T19:57:50.040Z,27.08
2022-08-19T20:00:20.356Z,27.12
2022-08-19T20:02:51.026Z,27.09
2022-08-19T20:05:21.727Z,27.39
2022-08-19T20:08:14.668Z,27.43
2022-08-19T20:10:44.868Z,27.08
2022-08-19T20:13:17.099Z,26.92
2022-08-19T20:15:45.877Z,27.16
2022-08-19T20:18:17.902Z,27.22
2022-08-19T20:20:50.237Z,27.09
2022-08-19T20:23:23.080Z,27.10
2022-08-19T20:25:52.558Z,26.99
2022-08-19T20:28:23.156Z,27.03
2022-08-19T20:30:51.827Z,27.18
2022-08-19T20:33:21.799Z,27.10
2022-08-19T20:35:50.651Z,26.98
2022-08-19T20:38:19.265Z,27.23
2022-08-19T20:40:48.931Z,27.02
2022-08-19T20:43:17.572Z,27.27
2022-08-19T20:45:47.201Z,27.14
2022-08-19T20:48:16.618Z,27.10
2022-08-19T20:50:46.139Z,26.83
2022-08-19T20:53:20.458Z,26.48
2022-08-19T20:55:49.711Z,26.46
2022-08-19T20:58:22.052Z,26.48
2022-08-19T21:00:55.674Z,26.43
2022-08-19T21:03:29.543Z,26.27
2022-08-19T21:05:58.533Z,26.15
2022-08-19T21:08:27.858Z,25.90
2022-08-19T21:10:58.919Z,25.97
2022-08-19T21:13:27.747Z,25.74
2022-08-19T21:15:56.789Z,25.46
2022-08-19T21:18:27.074Z,25.43
2022-08-19T21:20:57.175Z,25.31
2022-08-19T21:23:29.466Z,25.06
2022-08-19T21:26:00.535Z,25.13
2022-08-19T21:28:35.827Z,24.84
2022-08-19T21:31:10.491Z,25.03
2022-08-19T21:33:39.922Z,24.86
2022-08-19T21:36:09.326Z,24.72
2022-08-19T21:38:38.394Z,24.87
2022-08-19T21:41:08.042Z,24.88
2022-08-19T21:43:39.082Z,24.86
2022-08-19T21:46:09.510Z,24.74
2022-08-19T21:48:38.032Z,24.57
2022-08-19T21:51:06.748Z,24.57
2022-08-19T21:53:37.197Z,24.59
2022-08-19T21:56:07.487Z,24.68
2022-08-19T21:58:36.646Z,24.75
2022-08-19T22:01:08.194Z,24.65
2022-08-19T22:03:39.611Z,24.59
2022-08-19T22:06:09.515Z,24.66
2022-08-19T22:08:38.978Z,24.53
2022-08-19T22:11:07.574Z,24.88
2022-08-19T22:13:40.593Z,24.86
2022-08-19T22:16:10.693Z,24.84
2022-08-19T22:18:39.336Z,24.80
2022-08-19T22:21:11.692Z,24.72
2022-08-19T22:23:44.772Z,24.66
2022-08-19T22:26:16.480Z,24.52
2022-08-19T22:28:45.503Z,24.48
2022-08-19T22:31:16.324Z,24.47
2022-08-19T22:33:45.375Z,24.44
2022-08-19T22:36:14.797Z,24.04
2022-08-19T22:38:43.906Z,24.19
2022-08-19T22:41:12.406Z,24.42
2022-08-19T22:43:40.919Z,24.19
2022-08-19T22:46:15.112Z,23.81
2022-08-19T22:48:47.385Z,23.59
2022-08-19T22:51:35.094Z,23.62
2022-08-19T22:54:04.874Z,23.75
2022-08-19T22:56:34.910Z,23.79
2022-08-19T22:59:03.842Z,23.53
2022-08-19T23:01:32.322Z,23.53
2022-08-19T23:04:03.751Z,23.41
2022-08-19T23:06:35.170Z,23.41
2022-08-19T23:09:08.339Z,23.41
2022-08-19T23:11:42.038Z,23.49
2022-08-19T23:14:12.733Z,23.53
2022-08-19T23:16:42.652Z,23.51
2022-08-19T23:19:12.999Z,23.41
2022-08-19T23:21:43.459Z,23.38
2022-08-19T23:24:12.881Z,23.31
2022-08-19T23:27:04.172Z,23.26
2022-08-19T23:29:51.293Z,23.21
2022-08-19T23:32:22.906Z,23.28
2022-08-19T23:34:51.867Z,23.18
2022-08-19T23:37:20.459Z,23.53
2022-08-19T23:39:50.279Z,23.55
2022-08-19T23:42:20.673Z,23.76
2022-08-19T23:44:51.219Z,23.16
2022-08-19T23:47:22.232Z,22.81
2022-08-19T23:49:51.326Z,23.15
2022-08-19T23:52:20.310Z,22.72
2022-08-19T23:54:48.944Z,22.94
2022-08-19T23:57:17.519Z,22.75
2022-08-19T23:59:46.260Z,23.07
